Time;durP1;ratioP1;P1;durP2;ratioP2;P2;SDS_P1;SDS_P2;PMS_P1;PMS_P2;Temp;Humidity;BMP_temperature;BMP_pressure;BME280_temperature;BME280_humidity;BME280_pressure;Samples;Min_cycle;Max_cycle;Signal;HPM_P1;HPM_P2
2023/10/24 00:00:31;;;;;;;0.50;0.50;;;;;;;13.35;100.00;99207.69;5109715;28;20071;-62
2023/10/24 00:02:56;;;;;;;0.40;0.40;;;;;;;13.39;100.00;99203.91;5110642;28;20095;-62
2023/10/24 00:05:21;;;;;;;0.40;0.40;;;;;;;13.41;100.00;99194.00;5107048;28;20023;-61
2023/10/24 00:07:47;;;;;;;0.50;0.50;;;;;;;13.44;100.00;99199.19;5110156;28;20069;-61
2023/10/24 00:10:13;;;;;;;0.50;0.50;;;;;;;13.46;100.00;99186.59;5102188;28;20039;-61
2023/10/24 00:12:39;;;;;;;0.50;0.50;;;;;;;13.45;100.00;99182.19;5091110;28;20036;-62
2023/10/24 00:15:05;;;;;;;0.50;0.50;;;;;;;13.44;100.00;99172.47;5091449;28;20035;-62
2023/10/24 00:17:30;;;;;;;0.43;0.43;;;;;;;13.44;100.00;99151.97;5087461;28;20043;-62
2023/10/24 00:19:56;;;;;;;0.50;0.50;;;;;;;13.44;100.00;99170.66;5102612;28;20032;-62
2023/10/24 00:22:21;;;;;;;0.50;0.50;;;;;;;13.36;100.00;99188.91;5092792;28;20483;-62
2023/10/24 00:24:46;;;;;;;0.50;0.50;;;;;;;13.36;100.00;99215.63;5095083;28;20089;-61
2023/10/24 00:27:12;;;;;;;0.50;0.50;;;;;;;13.38;100.00;99212.91;5093452;28;20051;-62
2023/10/24 00:29:37;;;;;;;0.47;0.47;;;;;;;13.40;100.00;99224.34;5091097;28;20032;-62
2023/10/24 00:32:03;;;;;;;0.40;0.40;;;;;;;13.35;100.00;99219.25;5093395;28;20024;-62
2023/10/24 00:34:28;;;;;;;0.50;0.50;;;;;;;13.33;100.00;99222.97;5097610;28;20043;-62
2023/10/24 00:36:54;;;;;;;0.43;0.43;;;;;;;13.32;100.00;99222.09;5111184;28;20035;-62
2023/10/24 00:39:19;;;;;;;0.50;0.50;;;;;;;13.35;100.00;99215.72;5102821;28;20794;-63
2023/10/24 00:41:45;;;;;;;0.50;0.50;;;;;;;13.38;100.00;99212.91;5091072;28;20035;-62
2023/10/24 00:44:10;;;;;;;0.40;0.40;;;;;;;13.42;100.00;99201.06;5091350;28;20020;-62
2023/10/24 00:46:39;;;;;;;0.50;0.50;;;;;;;13.41;100.00;99197.53;5092815;28;20027;-62
2023/10/24 00:49:06;;;;;;;0.50;0.50;;;;;;;13.41;100.00;99181.50;5093991;28;20031;-62
2023/10/24 00:51:31;;;;;;;0.40;0.40;;;;;;;13.42;100.00;99164.53;5092401;28;20019;-62
2023/10/24 00:53:59;;;;;;;0.43;0.43;;;;;;;13.44;100.00;99154.63;5107789;28;20506;-62
2023/10/24 00:56:27;;;;;;;0.50;0.50;;;;;;;13.48;100.00;99156.16;5109968;28;20039;-63
2023/10/24 00:58:53;;;;;;;0.50;0.50;;;;;;;13.50;100.00;99150.72;5097691;28;20024;-62
2023/10/24 01:01:19;;;;;;;0.40;0.40;;;;;;;13.49;100.00;99154.38;5090220;28;20498;-62
2023/10/24 01:03:48;;;;;;;0.43;0.43;;;;;;;13.48;100.00;99139.25;5090761;28;20437;-62
2023/10/24 01:06:16;;;;;;;0.50;0.50;;;;;;;13.51;100.00;99131.94;5090212;28;20035;-62
2023/10/24 01:08:41;;;;;;;0.50;0.50;;;;;;;13.51;100.00;99123.09;5092638;28;20023;-62
2023/10/24 01:11:07;;;;;;;0.50;0.50;;;;;;;13.54;100.00;99122.91;5107773;28;20352;-61
2023/10/24 01:13:32;;;;;;;0.40;0.40;;;;;;;13.54;100.00;99117.56;5100729;28;20055;-62
2023/10/24 01:15:58;;;;;;;0.40;0.40;;;;;;;13.55;100.00;99109.44;5108055;28;20506;-61
2023/10/24 01:18:24;;;;;;;0.50;0.50;;;;;;;13.59;100.00;99118.16;5092301;28;20515;-61
2023/10/24 01:20:50;;;;;;;0.40;0.40;;;;;;;13.59;100.00;99112.81;5094475;28;20028;-62
2023/10/24 01:23:15;;;;;;;0.50;0.50;;;;;;;13.58;100.00;99111.06;5102481;28;20084;-62
2023/10/24 01:25:41;;;;;;;0.50;0.50;;;;;;;13.62;100.00;99094.78;5110498;28;20023;-61
2023/10/24 01:28:08;;;;;;;0.47;0.47;;;;;;;13.63;100.00;99100.97;5104018;28;20098;-62
2023/10/24 01:30:35;;;;;;;0.40;0.40;;;;;;;13.65;100.00;99109.75;5105898;28;20039;-62
2023/10/24 01:33:00;;;;;;;0.50;0.50;;;;;;;13.62;100.00;99096.59;5110074;28;20023;-63
2023/10/24 01:35:26;;;;;;;0.50;0.50;;;;;;;13.63;100.00;99100.97;5109849;28;20536;-62
2023/10/24 01:37:51;;;;;;;0.50;0.50;;;;;;;13.64;100.00;99108.03;5100187;28;20518;-62
2023/10/24 01:40:17;;;;;;;0.40;0.40;;;;;;;13.66;100.00;99116.81;5103343;28;20055;-62
2023/10/24 01:42:42;;;;;;;0.40;0.40;;;;;;;13.61;100.00;99110.88;5110115;28;20053;-62
2023/10/24 01:45:08;;;;;;;0.40;0.40;;;;;;;13.63;100.00;99111.66;5104503;28;20671;-61
2023/10/24 01:47:33;;;;;;;0.50;0.50;;;;;;;13.63;100.00;99112.53;5092113;28;20024;-62
2023/10/24 01:49:59;;;;;;;0.40;0.40;;;;;;;13.67;100.00;99102.50;5090957;28;20031;-62
2023/10/24 01:52:24;;;;;;;0.40;0.40;;;;;;;13.69;100.00;99108.63;5093130;28;20034;-62
2023/10/24 01:54:50;;;;;;;0.50;0.50;;;;;;;13.74;100.00;99101.22;5099604;28;20077;-62
2023/10/24 01:57:16;;;;;;;0.40;0.40;;;;;;;13.76;100.00;99084.09;5107971;28;20114;-62
2023/10/24 01:59:41;;;;;;;0.50;0.50;;;;;;;13.75;100.00;99073.50;5099605;28;20142;-62
2023/10/24 02:02:09;;;;;;;0.43;0.43;;;;;;;13.73;100.00;99086.97;5109178;28;20042;-62
2023/10/24 02:04:35;;;;;;;0.50;0.50;;;;;;;13.70;100.00;99094.31;5109211;28;20011;-62
2023/10/24 02:07:01;;;;;;;0.50;0.50;;;;;;;13.70;100.00;99096.97;5093921;28;20023;-62
2023/10/24 02:09:29;;;;;;;0.50;0.50;;;;;;;13.69;100.00;99098.78;5095140;28;20031;-63
2023/10/24 02:11:55;;;;;;;0.50;0.50;;;;;;;13.69;100.00;99100.63;5109789;28;20030;-62
2023/10/24 02:14:21;;;;;;;0.50;0.50;;;;;;;13.62;100.00;99107.28;5106015;28;20047;-60
2023/10/24 02:16:47;;;;;;;0.40;0.40;;;;;;;13.61;100.00;99113.53;5110201;28;20148;-61
2023/10/24 02:19:12;;;;;;;0.50;0.50;;;;;;;13.58;100.00;99113.72;5108499;28;20073;-60
2023/10/24 02:21:38;;;;;;;0.50;0.50;;;;;;;13.51;100.00;99113.22;5089325;28;20032;-61
2023/10/24 02:24:03;;;;;;;0.50;0.50;;;;;;;13.50;100.00;99105.31;5088413;28;20024;-60
2023/10/24 02:26:29;;;;;;;0.43;0.43;;;;;;;13.48;100.00;99105.41;5109176;28;20031;-60
2023/10/24 02:28:54;;;;;;;0.60;0.60;;;;;;;13.46;100.00;99103.78;5107464;28;20024;-61
2023/10/24 02:31:20;;;;;;;0.50;0.50;;;;;;;13.49;100.00;99130.31;5090456;28;20114;-60
2023/10/24 02:33:45;;;;;;;0.50;0.50;;;;;;;13.47;100.00;99121.53;5090982;28;20383;-60
2023/10/24 02:36:11;;;;;;;0.50;0.50;;;;;;;13.48;100.00;99112.53;5109412;28;20032;-60
2023/10/24 02:38:37;;;;;;;0.40;0.40;;;;;;;13.42;100.00;99126.28;5107231;28;20076;-60
2023/10/24 02:41:03;;;;;;;0.50;0.50;;;;;;;13.40;100.00;99142.38;5091901;28;20024;-60
2023/10/24 02:43:29;;;;;;;0.50;0.50;;;;;;;13.36;100.00;99121.31;5109307;28;20502;-60
2023/10/24 02:45:56;;;;;;;0.50;0.50;;;;;;;13.32;100.00;99123.28;5094020;28;20032;-61
2023/10/24 02:48:21;;;;;;;0.50;0.50;;;;;;;13.42;100.00;99153.00;5088835;28;20032;-60
2023/10/24 02:50:54;;;;;;;0.43;0.43;;;;;;;13.41;100.00;99146.78;5096069;28;20046;-60
2023/10/24 02:53:20;;;;;;;0.40;0.40;;;;;;;13.41;100.00;99145.94;5096893;28;20028;-59
2023/10/24 02:55:47;;;;;;;0.50;0.50;;;;;;;13.35;100.00;99148.94;5107964;28;20035;-58
2023/10/24 02:58:13;;;;;;;0.50;0.50;;;;;;;13.40;100.00;99141.53;5111841;28;20111;-58
2023/10/24 03:00:38;;;;;;;0.50;0.50;;;;;;;13.39;100.00;99138.00;5096708;28;20155;-58
2023/10/24 03:03:03;;;;;;;0.40;0.40;;;;;;;13.38;100.00;99148.78;5103082;28;20129;-58
2023/10/24 03:05:29;;;;;;;0.50;0.50;;;;;;;13.44;100.00;99148.41;5110032;28;20138;-58
2023/10/24 03:07:54;;;;;;;0.50;0.50;;;;;;;13.46;100.00;99162.56;5105784;28;20039;-58
2023/10/24 03:10:20;;;;;;;0.50;0.50;;;;;;;13.50;100.00;99145.38;5112512;28;20035;-58
2023/10/24 03:12:45;;;;;;;0.43;0.43;;;;;;;13.55;100.00;99132.63;5110310;27;20027;-58
2023/10/24 03:15:11;;;;;;;0.40;0.40;;;;;;;13.55;100.00;99133.50;5112872;28;20032;-58
2023/10/24 03:17:37;;;;;;;0.50;0.50;;;;;;;13.52;100.00;99139.03;5103863;28;20460;-58
2023/10/24 03:20:03;;;;;;;0.50;0.50;;;;;;;13.52;100.00;99135.47;5094230;28;20117;-61
2023/10/24 03:22:30;;;;;;;0.50;0.50;;;;;;;13.53;100.00;99137.19;5094930;28;20032;-58
2023/10/24 03:24:56;;;;;;;0.40;0.40;;;;;;;13.50;100.00;99132.03;5088168;28;20046;-58
2023/10/24 03:27:21;;;;;;;0.40;0.40;;;;;;;13.47;100.00;99134.88;5112741;28;20615;-58
2023/10/24 03:29:47;;;;;;;0.40;0.40;;;;;;;13.46;100.00;99138.53;5099841;28;20455;-58
2023/10/24 03:32:13;;;;;;;0.47;0.47;;;;;;;13.48;100.00;99141.94;5097806;28;20155;-58
2023/10/24 03:34:39;;;;;;;0.40;0.40;;;;;;;13.48;100.00;99133.91;5102918;28;20609;-58
2023/10/24 03:37:05;;;;;;;0.40;0.40;;;;;;;13.49;100.00;99135.66;5112880;28;20524;-58
2023/10/24 03:39:31;;;;;;;0.50;0.50;;;;;;;13.49;100.00;99125.84;5101057;28;20043;-58
2023/10/24 03:41:56;;;;;;;0.40;0.40;;;;;;;13.55;100.00;99135.28;5110174;28;20035;-58
2023/10/24 03:44:24;;;;;;;0.40;0.40;;;;;;;13.50;100.00;99124.00;5104518;28;20024;-58
2023/10/24 03:46:50;;;;;;;0.40;0.40;;;;;;;13.48;100.00;99104.53;5091462;28;20054;-58
2023/10/24 03:49:16;;;;;;;0.40;0.40;;;;;;;13.49;100.00;99109.81;5102970;28;20028;-58
2023/10/24 03:51:42;;;;;;;0.40;0.40;;;;;;;13.51;100.00;99102.53;5096836;28;20624;-58
2023/10/24 03:54:08;;;;;;;0.50;0.50;;;;;;;13.45;100.00;99086.88;5100493;28;20123;-59
2023/10/24 03:56:33;;;;;;;0.40;0.40;;;;;;;13.50;100.00;99089.28;5111388;28;20115;-58
2023/10/24 03:58:59;;;;;;;0.40;0.40;;;;;;;13.51;100.00;99077.66;5110701;28;20046;-58
2023/10/24 04:01:24;;;;;;;0.50;0.50;;;;;;;13.48;100.00;99089.38;5095195;28;20027;-58
2023/10/24 04:03:50;;;;;;;0.50;0.50;;;;;;;13.46;100.00;99096.59;5108526;28;20027;-58
2023/10/24 04:06:16;;;;;;;0.50;0.50;;;;;;;13.45;100.00;99083.34;5100784;28;20031;-58
2023/10/24 04:08:42;;;;;;;0.40;0.40;;;;;;;13.43;100.00;99088.78;5102603;28;20031;-58
2023/10/24 04:11:15;;;;;;;0.40;0.40;;;;;;;13.47;100.00;99084.13;5111497;28;20075;-58
2023/10/24 04:13:48;;;;;;;0.50;0.50;;;;;;;13.46;100.00;99058.38;5112074;28;20761;-58
2023/10/24 04:16:13;;;;;;;0.50;0.50;;;;;;;13.44;100.00;99074.50;5107897;28;20033;-58
2023/10/24 04:18:39;;;;;;;0.40;0.40;;;;;;;13.41;100.00;99068.47;5100654;28;20028;-58
2023/10/24 04:21:05;;;;;;;0.50;0.50;;;;;;;13.42;100.00;99071.06;5100606;28;20032;-58
2023/10/24 04:23:31;;;;;;;0.40;0.40;;;;;;;13.45;100.00;99070.00;5104591;28;20494;-58
2023/10/24 04:25:56;;;;;;;0.50;0.50;;;;;;;13.41;100.00;99052.44;5111488;28;20490;-57
2023/10/24 04:28:22;;;;;;;0.50;0.50;;;;;;;13.38;100.00;99063.31;5101033;28;20104;-58
2023/10/24 04:30:47;;;;;;;0.40;0.40;;;;;;;13.36;100.00;99075.88;5102595;28;20038;-58
2023/10/24 04:33:14;;;;;;;0.50;0.50;;;;;;;13.38;100.00;99065.97;5090996;28;20035;-58
2023/10/24 04:35:43;;;;;;;0.50;0.50;;;;;;;13.38;100.00;99063.31;5099219;28;20031;-58
2023/10/24 04:38:12;;;;;;;0.40;0.40;;;;;;;13.38;100.00;99060.66;5098375;28;20036;-58
2023/10/24 04:40:40;;;;;;;0.50;0.50;;;;;;;13.35;100.00;99058.13;5090882;28;20023;-60
2023/10/24 04:43:07;;;;;;;0.50;0.50;;;;;;;13.32;100.00;99047.63;5090344;28;20031;-58
2023/10/24 04:45:32;;;;;;;0.40;0.40;;;;;;;13.31;100.00;99046.75;5096185;28;20228;-58
2023/10/24 04:48:04;;;;;;;0.50;0.50;;;;;;;13.33;100.00;99034.19;5102449;28;20150;-58
2023/10/24 04:50:30;;;;;;;0.50;0.50;;;;;;;13.36;100.00;99049.19;5106491;28;20066;-58
2023/10/24 04:52:56;;;;;;;0.45;0.45;;;;;;;13.36;100.00;99039.34;5110157;28;20058;-58
2023/10/24 04:55:23;;;;;;;0.40;0.40;;;;;;;13.36;100.00;99051.84;5103016;28;20475;-58
2023/10/24 04:57:48;;;;;;;0.50;0.50;;;;;;;13.38;100.00;99037.44;5090409;28;20102;-58
2023/10/24 05:00:14;;;;;;;0.40;0.40;;;;;;;13.36;100.00;99042.00;5090145;28;20028;-58
2023/10/24 05:02:40;;;;;;;0.47;0.47;;;;;;;13.35;100.00;99052.78;5107985;28;20062;-58
2023/10/24 05:05:06;;;;;;;0.50;0.50;;;;;;;13.33;100.00;99060.06;5110688;28;20027;-58
2023/10/24 05:07:32;;;;;;;0.50;0.50;;;;;;;13.30;100.00;99062.88;5094928;28;20024;-58
2023/10/24 05:09:57;;;;;;;0.47;0.47;;;;;;;13.26;100.00;99056.00;5090610;28;20048;-58
2023/10/24 05:12:23;;;;;;;0.50;0.50;;;;;;;13.21;100.00;99056.28;5091281;28;20081;-58
2023/10/24 05:14:48;;;;;;;0.50;0.50;;;;;;;13.22;100.00;99058.00;5104031;28;20467;-58
2023/10/24 05:17:14;;;;;;;0.45;0.45;;;;;;;13.24;100.00;99058.78;5099216;28;20070;-58
2023/10/24 05:19:41;;;;;;;0.50;0.50;;;;;;;13.25;100.00;99063.16;5099321;28;20023;-59
2023/10/24 05:22:13;;;;;;;0.50;0.50;;;;;;;13.24;100.00;99067.63;5097439;28;20028;-58
2023/10/24 05:24:39;;;;;;;0.50;0.50;;;;;;;13.25;100.00;99073.84;5098203;28;20072;-58
2023/10/24 05:27:05;;;;;;;0.50;0.50;;;;;;;13.27;100.00;99071.94;5096119;28;20038;-58
2023/10/24 05:29:36;;;;;;;0.50;0.50;;;;;;;13.30;100.00;99073.56;5098664;28;20036;-59
2023/10/24 05:32:02;;;;;;;0.50;0.50;;;;;;;13.31;100.00;99073.47;5097169;28;20126;-57
2023/10/24 05:34:30;;;;;;;0.50;0.50;;;;;;;13.33;100.00;99068.06;5096222;28;20111;-58
2023/10/24 05:36:56;;;;;;;0.40;0.40;;;;;;;13.34;100.00;99072.44;5099233;28;20035;-58
2023/10/24 05:39:24;;;;;;;0.45;0.45;;;;;;;13.32;100.00;99066.31;5104240;28;20023;-58
2023/10/24 05:41:49;;;;;;;0.40;0.40;;;;;;;13.36;100.00;99067.88;5091524;28;20028;-58
2023/10/24 05:44:15;;;;;;;0.50;0.50;;;;;;;13.36;100.00;99055.38;5089099;28;20012;-58
2023/10/24 05:46:40;;;;;;;0.50;0.50;;;;;;;13.37;100.00;99050.88;5090563;28;20032;-58
2023/10/24 05:49:06;;;;;;;0.50;0.50;;;;;;;13.39;100.00;99044.53;5094475;28;20038;-58
2023/10/24 05:51:32;;;;;;;0.40;0.40;;;;;;;13.41;100.00;99036.41;5095486;28;20146;-59
2023/10/24 05:53:58;;;;;;;0.50;0.50;;;;;;;13.41;100.00;99031.06;5098226;28;20586;-58
2023/10/24 05:56:23;;;;;;;0.50;0.50;;;;;;;13.42;100.00;99027.44;5099955;28;20038;-58
2023/10/24 05:58:48;;;;;;;0.47;0.47;;;;;;;13.41;100.00;99025.72;5091974;28;20353;-58
2023/10/24 06:01:14;;;;;;;0.40;0.40;;;;;;;13.43;100.00;99037.16;5099521;28;20027;-58
2023/10/24 06:03:39;;;;;;;0.50;0.50;;;;;;;13.43;100.00;99045.16;5095194;28;20081;-58
2023/10/24 06:06:05;;;;;;;0.45;0.45;;;;;;;13.41;100.00;99044.44;5100152;28;20119;-58
2023/10/24 06:08:31;;;;;;;0.43;0.43;;;;;;;13.46;100.00;99075.25;5070425;28;20046;-58
2023/10/24 06:11:01;;;;;;;0.40;0.40;;;;;;;13.44;100.00;99090.53;5091396;28;20042;-57
2023/10/24 06:13:27;;;;;;;0.40;0.40;;;;;;;13.40;100.00;99105.00;5089137;28;20048;-57
2023/10/24 06:15:53;;;;;;;0.50;0.50;;;;;;;13.39;100.00;99094.41;5093883;28;20032;-58
2023/10/24 06:18:18;;;;;;;0.45;0.45;;;;;;;13.44;100.00;99090.53;5105211;28;20059;-57
2023/10/24 06:20:44;;;;;;;0.43;0.43;;;;;;;13.41;100.00;99080.00;5088685;28;20040;-58
2023/10/24 06:23:10;;;;;;;0.50;0.50;;;;;;;13.42;100.00;99070.19;5106099;28;20023;-58
2023/10/24 06:25:40;;;;;;;0.40;0.40;;;;;;;13.45;100.00;99059.31;5107899;28;20027;-58
2023/10/24 06:28:07;;;;;;;0.40;0.40;;;;;;;13.42;100.00;99054.16;5103684;28;20032;-58
2023/10/24 06:30:33;;;;;;;0.40;0.40;;;;;;;13.46;100.00;99055.69;5092986;28;20039;-58
2023/10/24 06:32:59;;;;;;;0.50;0.50;;;;;;;13.51;100.00;99064.31;5102384;28;20023;-58
2023/10/24 06:35:24;;;;;;;0.40;0.40;;;;;;;13.49;100.00;99060.84;5100527;28;20069;-58
2023/10/24 06:37:50;;;;;;;0.50;0.50;;;;;;;13.48;100.00;99053.78;5092253;28;20031;-58
2023/10/24 06:40:15;;;;;;;0.47;0.47;;;;;;;13.50;100.00;99051.88;5090714;28;20513;-58
2023/10/24 06:42:41;;;;;;;0.50;0.50;;;;;;;13.49;100.00;99058.19;5100651;28;20115;-58
2023/10/24 06:45:07;;;;;;;0.50;0.50;;;;;;;13.47;100.00;99060.09;5097561;28;20103;-57
2023/10/24 06:47:32;;;;;;;0.40;0.40;;;;;;;13.43;100.00;99051.38;5090389;28;20875;-58
2023/10/24 06:49:58;;;;;;;0.50;0.50;;;;;;;13.48;100.00;99053.78;5109304;28;20051;-58
2023/10/24 06:52:23;;;;;;;0.45;0.45;;;;;;;13.52;100.00;99061.53;5099440;28;20479;-57
2023/10/24 06:54:49;;;;;;;0.50;0.50;;;;;;;13.55;100.00;99065.81;5092327;28;20103;-57
2023/10/24 06:57:14;;;;;;;0.40;0.40;;;;;;;13.51;100.00;99064.31;5095952;28;20039;-58
2023/10/24 06:59:40;;;;;;;0.50;0.50;;;;;;;13.54;100.00;99059.63;5075648;28;20457;-58
2023/10/24 07:02:05;;;;;;;0.45;0.45;;;;;;;13.55;100.00;99065.81;5098562;28;20054;-58
2023/10/24 07:04:31;;;;;;;0.50;0.50;;;;;;;13.53;100.00;99067.72;5110688;28;20020;-58
2023/10/24 07:06:57;;;;;;;0.47;0.47;;;;;;;13.56;100.00;99075.59;5089470;28;20028;-57
2023/10/24 07:09:22;;;;;;;0.50;0.50;;;;;;;13.61;100.00;99082.34;5092987;28;20026;-58
2023/10/24 07:11:47;;;;;;;0.50;0.50;;;;;;;13.59;100.00;99094.94;5092523;28;20049;-57
2023/10/24 07:14:13;;;;;;;0.40;0.40;;;;;;;13.65;100.00;99094.59;5094438;28;20056;-57
2023/10/24 07:16:39;;;;;;;0.40;0.40;;;;;;;13.65;100.00;99094.59;5092818;28;20024;-58
2023/10/24 07:19:04;;;;;;;0.40;0.40;;;;;;;13.56;100.00;99062.22;5100674;28;20027;-57
2023/10/24 07:21:30;;;;;;;0.50;0.50;;;;;;;13.77;100.00;99082.31;5097364;28;20023;-58
2023/10/24 07:23:56;;;;;;;0.50;0.50;;;;;;;13.76;100.00;99078.75;5107482;28;20038;-57
2023/10/24 07:26:22;;;;;;;0.50;0.50;;;;;;;13.80;100.00;99084.78;5109028;28;20027;-57
2023/10/24 07:28:47;;;;;;;0.40;0.40;;;;;;;13.77;100.00;99088.50;5103642;28;20031;-58
2023/10/24 07:31:13;;;;;;;0.40;0.40;;;;;;;13.78;100.00;99084.00;5095671;28;20113;-58
2023/10/24 07:33:38;;;;;;;0.40;0.40;;;;;;;13.81;100.00;99089.16;5095901;28;20027;-57
2023/10/24 07:36:05;;;;;;;0.40;0.40;;;;;;;13.79;100.00;99097.28;5106822;28;20150;-57
2023/10/24 07:38:31;;;;;;;0.50;0.50;;;;;;;13.78;100.00;99108.06;5104851;28;20035;-59
2023/10/24 07:40:56;;;;;;;0.50;0.50;;;;;;;13.78;100.00;99105.41;5095908;28;20476;-57
2023/10/24 07:43:22;;;;;;;0.50;0.50;;;;;;;13.81;100.00;99099.84;5107832;28;20045;-57
2023/10/24 07:45:51;;;;;;;0.50;0.50;;;;;;;13.83;100.00;99096.16;5110590;28;20811;-57
2023/10/24 07:48:16;;;;;;;0.50;0.50;;;;;;;13.88;100.00;99090.53;5102525;28;20031;-58
2023/10/24 07:50:56;;;;;;;0.40;0.40;;;;;;;13.89;100.00;99085.09;5099687;28;20725;-57
2023/10/24 07:53:23;;;;;;;0.40;0.40;;;;;;;13.90;100.00;99088.63;5109993;28;20479;-57
2023/10/24 07:55:48;;;;;;;0.50;0.50;;;;;;;13.96;100.00;99082.91;5109623;28;20076;-58
2023/10/24 07:58:16;;;;;;;0.50;0.50;;;;;;;13.99;100.00;99088.06;5104655;28;20035;-57
2023/10/24 08:00:45;;;;;;;0.40;0.40;;;;;;;13.99;100.00;99101.41;5104721;28;20035;-57
2023/10/24 08:03:15;;;;;;;0.40;0.40;;;;;;;13.98;100.00;99102.38;5092488;28;20079;-57
2023/10/24 08:05:41;;;;;;;0.40;0.40;;;;;;;14.00;100.00;99105.84;5096922;28;20077;-57
2023/10/24 08:08:06;;;;;;;0.50;0.50;;;;;;;13.98;100.00;99113.09;5097905;28;20033;-58
2023/10/24 08:10:32;;;;;;;0.47;0.47;;;;;;;13.96;100.00;99109.63;5102129;28;20031;-57
2023/10/24 08:12:59;;;;;;;0.50;0.50;;;;;;;13.99;100.00;99115.66;5093303;28;20167;-57
2023/10/24 08:15:24;;;;;;;0.43;0.43;;;;;;;14.02;100.00;99114.63;5103504;28;20058;-58
2023/10/24 08:17:49;;;;;;;0.50;0.50;;;;;;;14.07;100.00;99117.84;5109611;28;20470;-57
2023/10/24 08:20:15;;;;;;;0.40;0.40;;;;;;;14.09;100.00;99110.59;5105055;28;20036;-57
2023/10/24 08:22:40;;;;;;;0.50;0.50;;;;;;;14.11;100.00;99116.72;5105188;28;20027;-57
2023/10/24 08:25:06;;;;;;;0.40;0.40;;;;;;;14.13;100.00;99109.47;5110504;28;20041;-57
2023/10/24 08:27:32;;;;;;;0.50;0.50;;;;;;;14.15;100.00;99105.75;5108183;28;20130;-58
2023/10/24 08:29:57;;;;;;;0.50;0.50;;;;;;;14.15;100.00;99105.75;5096021;28;20035;-58
2023/10/24 08:32:23;;;;;;;0.40;0.40;;;;;;;14.19;100.00;99106.41;5090036;28;20032;-57
2023/10/24 08:34:49;;;;;;;0.50;0.50;;;;;;;14.20;100.00;99097.47;5090230;28;20028;-57
2023/10/24 08:37:14;;;;;;;0.40;0.40;;;;;;;14.23;100.00;99105.28;5092404;28;20038;-57
2023/10/24 08:39:40;;;;;;;0.50;0.50;;;;;;;14.24;100.00;99105.19;5090354;28;20490;-58
2023/10/24 08:42:05;;;;;;;0.40;0.40;;;;;;;14.27;100.00;99106.84;5093243;28;20081;-57
2023/10/24 08:44:32;;;;;;;0.40;0.40;;;;;;;14.29;100.00;99096.91;5090426;28;20024;-58
2023/10/24 08:46:57;;;;;;;0.40;0.40;;;;;;;14.30;100.00;99101.28;5103622;28;20024;-57
2023/10/24 08:49:23;;;;;;;0.40;0.40;;;;;;;14.33;100.00;99093.09;5092917;28;20026;-57
2023/10/24 08:51:49;;;;;;;0.50;0.50;;;;;;;14.36;100.00;99091.06;5090878;28;20035;-58
2023/10/24 08:54:14;;;;;;;0.50;0.50;;;;;;;14.40;100.00;99087.25;5103786;28;20766;-58
2023/10/24 08:56:41;;;;;;;0.40;0.40;;;;;;;14.43;100.00;99094.25;5111061;28;20387;-57
2023/10/24 08:59:09;;;;;;;0.40;0.40;;;;;;;14.47;100.00;99087.72;5107341;28;20061;-58
2023/10/24 09:01:36;;;;;;;0.50;0.50;;;;;;;14.50;100.00;99090.19;5111055;28;20508;-58
2023/10/24 09:04:03;;;;;;;0.50;0.50;;;;;;;14.47;100.00;99085.06;5111001;28;20024;-57
2023/10/24 09:06:31;;;;;;;0.50;0.50;;;;;;;14.52;100.00;99088.28;5093538;28;20078;-58
2023/10/24 09:08:57;;;;;;;0.40;0.40;;;;;;;14.54;100.00;99073.00;5094716;28;20072;-57
2023/10/24 09:11:22;;;;;;;0.40;0.40;;;;;;;14.54;100.00;99067.66;5090302;28;20024;-57
2023/10/24 09:13:48;;;;;;;0.40;0.40;;;;;;;14.58;100.00;99079.88;5107944;28;20051;-57
2023/10/24 09:16:15;;;;;;;0.40;0.40;;;;;;;14.62;100.00;99075.19;5106958;28;20653;-57
2023/10/24 09:18:40;;;;;;;0.50;0.50;;;;;;;14.66;100.00;99079.41;5089978;28;20020;-60
2023/10/24 09:21:07;;;;;;;0.32;0.32;;;;;;;14.65;100.00;99073.19;5089472;28;20106;-58
2023/10/24 09:23:35;;;;;;;0.40;0.40;;;;;;;14.66;100.00;99064.22;5106457;28;20463;-58
2023/10/24 09:26:05;;;;;;;0.50;0.50;;;;;;;14.76;100.00;99085.88;5109662;28;20028;-57
2023/10/24 09:28:33;;;;;;;0.50;0.50;;;;;;;14.75;100.00;99079.66;5100401;28;20507;-57
2023/10/24 09:31:03;;;;;;;0.40;0.40;;;;;;;14.81;100.00;99078.41;5109180;28;20321;-57
2023/10/24 09:33:29;;;;;;;0.40;0.40;;;;;;;14.83;100.00;99082.69;5109192;28;20031;-58
2023/10/24 09:35:56;;;;;;;0.40;0.40;;;;;;;14.84;100.00;99067.50;5106037;28;20058;-58
2023/10/24 09:38:24;;;;;;;0.43;0.43;;;;;;;14.85;100.00;99070.09;5109746;28;20107;-57
2023/10/24 09:40:50;;;;;;;0.43;0.43;;;;;;;14.88;100.00;99075.22;5107215;28;20222;-58
2023/10/24 09:43:23;;;;;;;0.38;0.38;;;;;;;14.91;100.00;99079.53;5089809;28;20102;-58
2023/10/24 09:45:51;;;;;;;;;;;;;;;14.90;100.00;99076.00;5090305;28;20456;-57
2023/10/24 09:48:18;;;;;;;0.32;0.32;;;;;;;14.91;100.00;99064.31;5089382;28;19920;-58
2023/10/24 09:50:43;;;;;;;0.50;0.50;;;;;;;14.92;100.00;99055.34;5096090;28;20023;-58
2023/10/24 09:53:10;;;;;;;0.50;0.50;;;;;;;14.94;100.00;99058.75;5109958;28;20033;-58
2023/10/24 09:55:39;;;;;;;0.40;0.40;;;;;;;14.96;100.00;99056.00;5108200;28;20111;-57
2023/10/24 09:58:07;;;;;;;0.40;0.40;;;;;;;14.94;100.00;99042.69;5089896;28;20038;-57
2023/10/24 10:00:33;;;;;;;0.40;0.40;;;;;;;14.99;100.00;99045.94;5090007;28;20041;-57
2023/10/24 10:02:59;;;;;;;0.40;0.40;;;;;;;15.03;100.00;99052.81;5100770;28;20391;-57
2023/10/24 10:05:28;;;;;;;0.40;0.40;;;;;;;15.04;100.00;99049.16;5091293;28;20024;-57
2023/10/24 10:07:56;;;;;;;0.43;0.43;;;;;;;15.11;100.00;99050.47;5105530;28;20046;-57
2023/10/24 10:10:26;;;;;;;0.40;0.40;;;;;;;15.11;100.00;99041.56;5090351;28;22109;-57
2023/10/24 10:13:00;;;;;;;0.40;0.40;;;;;;;15.13;100.00;99043.22;5090533;28;20131;-57
2023/10/24 10:15:59;;;;;;;0.40;0.40;;;;;;;15.15;100.00;99041.28;5072844;28;20061;-58
2023/10/24 10:19:15;;;;;;;0.50;0.50;;;;;;;15.16;100.00;99036.78;5108602;28;20181;-58
2023/10/24 10:22:21;;;;;;;0.40;0.40;;;;;;;15.23;100.00;99038.09;5096359;28;20051;-57
2023/10/24 10:25:09;;;;;;;0.40;0.40;;;;;;;15.26;100.00;99037.88;5089150;28;20101;-59
2023/10/24 10:27:44;;;;;;;0.30;0.30;;;;;;;15.28;100.00;99035.97;5092231;28;20032;-59
2023/10/24 10:30:21;;;;;;;0.40;0.40;;;;;;;15.31;100.00;99033.06;5096570;28;20453;-59
2023/10/24 10:32:55;;;;;;;0.40;0.40;;;;;;;15.34;100.00;99033.72;5097603;28;20023;-59
2023/10/24 10:35:20;;;;;;;0.40;0.40;;;;;;;15.35;100.00;99035.44;5089011;28;20125;-59
2023/10/24 10:38:04;;;;;;;0.40;0.40;;;;;;;15.33;100.00;99018.63;5089059;28;20074;-59
2023/10/24 10:40:29;;;;;;;;;;;;;;;15.40;100.00;99024.47;5088793;28;20061;-59
2023/10/24 10:42:55;;;;;;;0.40;0.40;;;;;;;15.40;100.00;99030.66;5091800;28;19960;-59
2023/10/24 10:45:25;;;;;;;0.40;0.40;;;;;;;15.44;100.00;99023.28;5088472;28;20044;-59
2023/10/24 10:47:52;;;;;;;0.40;0.40;;;;;;;15.47;100.00;99020.38;5090764;28;20024;-59
2023/10/24 10:50:44;;;;;;;0.40;0.40;;;;;;;15.47;100.00;99031.97;5088449;28;20036;-59
2023/10/24 10:53:33;;;;;;;0.30;0.30;;;;;;;15.52;100.00;99021.78;5088736;28;20112;-59
2023/10/24 10:56:01;;;;;;;0.30;0.30;;;;;;;15.53;100.00;99018.13;5108793;28;20088;-59
2023/10/24 10:58:57;;;;;;;0.30;0.30;;;;;;;15.58;100.00;99018.69;5106809;28;20032;-59
2023/10/24 11:01:44;;;;;;;0.40;0.40;;;;;;;15.59;100.00;99004.34;5055163;28;20540;-59
2023/10/24 11:04:14;;;;;;;0.30;0.30;;;;;;;15.63;100.00;99016.56;5094856;28;20043;-59
2023/10/24 11:06:56;;;;;;;0.30;0.30;;;;;;;15.65;100.00;99009.25;5105715;28;20112;-59
2023/10/24 11:09:30;;;;;;;0.40;0.40;;;;;;;15.66;100.00;98994.91;5107325;28;20419;-59
2023/10/24 11:12:27;;;;;;;0.40;0.40;;;;;;;15.70;100.00;99001.75;5107630;28;20024;-59
2023/10/24 11:15:07;;;;;;;0.40;0.40;;;;;;;15.73;100.00;99001.53;5097297;28;20042;-59
2023/10/24 11:17:33;;;;;;;0.40;0.40;;;;;;;15.77;100.00;99011.09;5088558;28;20045;-59
2023/10/24 11:19:59;;;;;;;0.30;0.30;;;;;;;15.79;100.00;99003.81;5093621;28;20051;-59
2023/10/24 11:22:25;;;;;;;0.30;0.30;;;;;;;15.87;100.00;99008.63;5093541;28;20525;-59
2023/10/24 11:24:51;;;;;;;0.30;0.30;;;;;;;15.92;100.00;99002.94;5111778;28;20020;-59
2023/10/24 11:27:17;;;;;;;0.35;0.35;;;;;;;15.97;100.00;98987.38;5109704;28;20043;-59